Alkor — DBND — position and weather

sailwx.info

Track history (hours):
 
Tides and Currents Weather Stations Pressure Air Temp Water Temp Dewpoint Dewpoint Depression Visibility Wind Speed Wind Dir Waves Ship Positions

Oceanographic research ship Alkor (Germany)

Ship's website: http://www.briese.de/

Detailed information on ship capabilities available from University of Delaware's Ocean Information Center.

Last reported at 2017-Aug-20 09:30 UTC. Time now 2017-Aug-20 09:49 UTC.
Position N 54°31' E 018°33'.

Length 55 m; draft 4.2 m.

Type: Ship. MMSI: 211216512.

Date/timePositionNaut miles runAvg speedWind from/ knotsBaromVisibWave heightAir tempDewpointWater temp
2017-Aug-20 09:30N 54°31' E 018°33'0 0.0
2017-Aug-20 09:00N 54°31' E 018°33'0 0.0
2017-Aug-20 08:30N 54°31' E 018°33'0 0.0
2017-Aug-20 08:00N 54°31' E 018°33'0 0.0
2017-Aug-20 07:30N 54°31' E 018°33'0 0.0
2017-Aug-20 07:00N 54°31' E 018°33'0 0.0
2017-Aug-20 06:30N 54°31' E 018°33'0 0.0
2017-Aug-20 06:00N 54°31' E 018°33'0 0.0
2017-Aug-20 05:30N 54°31' E 018°33'0 0.0
2017-Aug-20 05:00N 54°31' E 018°33'0 0.0
2017-Aug-20 04:30N 54°31' E 018°33'0 0.0
2017-Aug-20 04:00N 54°31' E 018°33'0 0.0
2017-Aug-20 03:30N 54°31' E 018°33'0 0.0
2017-Aug-20 03:00N 54°31' E 018°33'0 0.0
2017-Aug-20 02:30N 54°31' E 018°33'0 0.0
2017-Aug-20 02:00N 54°31' E 018°33'0 0.0
2017-Aug-20 01:30N 54°31' E 018°33'0 0.0
2017-Aug-20 01:00N 54°31' E 018°33'0 0.0
2017-Aug-20 00:30N 54°31' E 018°33'0 0.0
2017-Aug-20 00:00N 54°31' E 018°33'0 0.0
2017-Aug-19 23:29N 54°31' E 018°33'0 0.0
2017-Aug-19 23:00N 54°31' E 018°33'0 0.0
2017-Aug-19 22:30N 54°31' E 018°33'0 0.0
2017-Aug-19 22:00N 54°31' E 018°33'0 0.0
2017-Aug-19 21:30N 54°31' E 018°33'0 0.0
2017-Aug-19 21:00N 54°31' E 018°33'0 0.0
2017-Aug-19 20:30N 54°31' E 018°33'0 0.0
2017-Aug-19 20:00N 54°31' E 018°33'0 0.0
2017-Aug-19 19:30N 54°31' E 018°33'0 0.0
2017-Aug-19 19:00N 54°31' E 018°33'0 0.0
2017-Aug-19 18:30N 54°31' E 018°33'0 0.0
2017-Aug-19 18:00N 54°31' E 018°33'0 0.0
2017-Aug-19 17:30N 54°31' E 018°33'0 0.0
2017-Aug-19 17:00N 54°31' E 018°33'0 0.0
2017-Aug-19 16:29N 54°31' E 018°33'0 0.0
2017-Aug-19 16:00N 54°31' E 018°33'0 0.0
2017-Aug-19 15:30N 54°31' E 018°33'0 0.0
2017-Aug-19 15:00N 54°31' E 018°33'0 0.0
2017-Aug-19 14:00N 54°31' E 018°33'0 0.0
2017-Aug-19 13:30N 54°31' E 018°33'0 0.0
2017-Aug-19 12:59N 54°31' E 018°33'1 2.3
2017-Aug-19 12:30N 54°31' E 018°35'611.9
2017-Aug-19 12:00N 54°32' E 018°45'611.3
2017-Aug-19 11:30N 54°36' E 018°53'611.5
2017-Aug-19 11:00N 54°40' E 018°59'612.3
2017-Aug-19 10:30N 54°42' E 019°09'2 4.3
2017-Aug-19 10:00N 54°42' E 019°13'0 0.0
2017-Aug-19 09:30N 54°42' E 019°13'0 0.1
2017-Aug-19 09:00N 54°42' E 019°13'1 2.2
2017-Aug-19 08:30N 54°42' E 019°15'1 2.9
2017-Aug-19 08:00N 54°43' E 019°17'2 3.9
2017-Aug-19 07:30N 54°42' E 019°14'2 3.0
2017-Aug-19 07:00N 54°43' E 019°16'0 0.5
2017-Aug-19 06:30N 54°43' E 019°16'1 1.6
2017-Aug-19 06:00N 54°43' E 019°17'0 0.2
2017-Aug-19 05:30N 54°43' E 019°17'1 1.8
2017-Aug-19 05:00N 54°43' E 019°16'510.7
2017-Aug-19 04:30N 54°48' E 019°10'2 3.9
2017-Aug-19 04:00N 54°49' E 019°08'5 9.3
2017-Aug-19 03:30N 54°53' E 019°11'1 2.5
2017-Aug-19 03:00N 54°54' E 019°11'611.2
2017-Aug-19 02:30N 54°54' E 019°01'4 8.0
2017-Aug-19 02:00N 54°54' E 018°54'2 4.6
2017-Aug-19 01:30N 54°56' E 018°57'510.9
2017-Aug-19 01:00N 54°59' E 019°04'1 1.4
2017-Aug-19 00:30N 55°00' E 019°04'5 9.6
2017-Aug-19 00:00N 54°60' E 018°56'611.2
2017-Aug-18 23:30N 54°60' E 018°46'3 5.7
2017-Aug-18 23:00N 55°00' E 018°41'4 7.9
2017-Aug-18 22:30N 55°04' E 018°44'611.3
2017-Aug-18 22:00N 55°09' E 018°48'9 6.6
2017-Aug-18 20:35N 55°09' E 018°32'110.8
2017-Aug-18 20:30N 55°09' E 018°30'3 6.3
2017-Aug-18 20:00N 55°09' E 018°25'8 9.9
2017-Aug-18 19:09N 55°09' E 018°10'211.8
2017-Aug-18 18:58N 55°08' E 018°07'611.9
2017-Aug-18 18:30N 55°08' E 017°57'2611.9
2017-Aug-18 16:20N 55°06' E 017°12'512.1
2017-Aug-18 15:57N 55°06' E 017°04'612.1
2017-Aug-18 15:29N 55°06' E 016°54'4111.4
2017-Aug-18 11:51N 55°04' E 015°42'4 1.7
2017-Aug-18 09:30N 55°07' E 015°45'5 1.6
2017-Aug-18 06:27N 55°03' E 015°42'1 2.8
2017-Aug-18 06:00N 55°04' E 015°43'4 1.5
2017-Aug-18 03:34N 55°07' E 015°45'2 6.2
2017-Aug-18 03:16N 55°06' E 015°44'0 0.3
2017-Aug-18 02:12N 55°05' E 015°45'1 0.5
2017-Aug-17 23:13N 55°05' E 015°47'3 2.5
2017-Aug-17 22:13N 55°08' E 015°45'0 0.2
2017-Aug-17 21:53N 55°08' E 015°45'0 0.0
2017-Aug-17 21:30N 55°08' E 015°45'0 0.0
2017-Aug-17 20:59N 55°08' E 015°45'1 2.4
2017-Aug-17 20:29N 55°06' E 015°46'2 3.0
2017-Aug-17 19:58N 55°08' E 015°45'2 3.6
2017-Aug-17 19:30N 55°06' E 015°46'2 3.1
2017-Aug-17 19:00N 55°08' E 015°45'2 4.5
2017-Aug-17 18:30N 55°10' E 015°45'4 6.2
2017-Aug-17 17:54N 55°14' E 015°45'3 6.6
2017-Aug-17 17:29N 55°16' E 015°45'1 2.5
2017-Aug-17 17:00N 55°18' E 015°45'1 1.7
2017-Aug-17 16:30N 55°17' E 015°45'611.6
2017-Aug-17 16:00N 55°16' E 015°55'2 4.1
2017-Aug-17 15:30N 55°15' E 015°59'0 0.8
2017-Aug-17 15:00N 55°15' E 015°59'2 4.1
2017-Aug-17 14:30N 55°17' E 016°00'1 2.4
2017-Aug-17 14:00N 55°18' E 016°02'611.2
2017-Aug-17 13:30N 55°18' E 016°12'3 5.2
2017-Aug-17 13:01N 55°18' E 016°16'510.7
2017-Aug-17 12:30N 55°17' E 016°25'3 5.3
2017-Aug-17 12:00N 55°17' E 016°30'611.2
2017-Aug-17 11:30N 55°12' E 016°30'4 8.4
2017-Aug-17 11:00N 55°08' E 016°30'4 7.7
2017-Aug-17 10:30N 55°07' E 016°23'4 8.9
2017-Aug-17 10:00N 55°08' E 016°15'3 6.8
2017-Aug-17 09:30N 55°07' E 016°09'510.7
2017-Aug-17 09:00N 55°08' E 016°00'2 4.4
2017-Aug-17 08:30N 55°07' E 015°56'611.3
2017-Aug-17 08:00N 55°08' E 015°46'1 2.8
2017-Aug-17 07:30N 55°06' E 015°45'611.7
2017-Aug-17 07:00N 55°01' E 015°45'3 6.2
2017-Aug-17 06:30N 54°57' E 015°46'5 9.2
2017-Aug-17 06:00N 54°58' E 015°54'4 7.1
2017-Aug-17 05:31N 54°57' E 015°60'9 9.8
2017-Aug-17 04:38N 54°57' E 016°15'0 1.5
2017-Aug-17 04:28N 54°57' E 016°15'8 9.6
2017-Aug-17 03:36N 54°51' E 016°05'111.1
2017-Aug-17 03:29N 54°50' E 016°04'4 7.7
2017-Aug-17 03:00N 54°47' E 015°60'7 8.9
2017-Aug-17 02:10N 54°48' E 015°47'1 7.2
2017-Aug-17 02:00N 54°47' E 015°45'2 4.2
2017-Aug-17 01:27N 54°45' E 015°45'511.2
2017-Aug-17 01:00N 54°40' E 015°45'3 5.5
2017-Aug-17 00:30N 54°37' E 015°45'4 7.4
2017-Aug-17 00:00N 54°37' E 015°39'5 9.7
2017-Aug-16 23:30N 54°37' E 015°30'4 6.7
2017-Aug-16 22:52N 54°38' E 015°23'411.4
2017-Aug-16 22:30N 54°38' E 015°16'7 6.9
2017-Aug-16 21:26N 54°43' E 015°06'511.7
2017-Aug-16 20:59N 54°47' E 015°01'1 2.8
2017-Aug-16 20:30N 54°47' E 015°03'611.0
2017-Aug-16 20:00N 54°47' E 015°13'3 4.9
2017-Aug-16 19:28N 54°47' E 015°17'610.9
2017-Aug-16 18:53N 54°47' E 015°28'8 7.2
2017-Aug-16 17:43N 54°56' E 015°30'4 5.3
2017-Aug-16 16:56N 54°57' E 015°23'511.2
2017-Aug-16 16:30N 54°58' E 015°15'5 7.2
2017-Aug-16 15:52N 55°02' E 015°15'411.1
2017-Aug-16 15:31N 55°06' E 015°15'2 3.2
2017-Aug-16 15:00N 55°08' E 015°16'611.6
2017-Aug-16 14:30N 55°08' E 015°27'3 5.1
2017-Aug-16 14:00N 55°08' E 015°31'611.1
2017-Aug-16 13:30N 55°13' E 015°30'4 8.0
2017-Aug-16 13:00N 55°17' E 015°30'2 3.9
2017-Aug-16 12:30N 55°18' E 015°26'510.7
2017-Aug-16 12:00N 55°18' E 015°17'2 3.5
2017-Aug-16 11:30N 55°18' E 015°14'611.4
2017-Aug-16 11:00N 55°17' E 015°04'2 4.4
2017-Aug-16 10:30N 55°18' E 015°00'611.3
2017-Aug-16 10:01N 55°23' E 015°00'4 8.3
2017-Aug-16 09:30N 55°27' E 015°00'3 5.9
2017-Aug-16 09:00N 55°27' E 015°05'510.1
2017-Aug-16 08:30N 55°27' E 015°14'2 4.1
2017-Aug-16 08:01N 55°28' E 015°18'611.1
2017-Aug-16 07:31N 55°28' E 015°27'2 3.8
2017-Aug-16 07:00N 55°28' E 015°31'5 9.7
2017-Aug-16 06:30N 55°27' E 015°39'4 7.2
2017-Aug-16 06:00N 55°27' E 015°45'3 5.9
2017-Aug-16 05:30N 55°28' E 015°50'510.8
2017-Aug-16 05:00N 55°27' E 015°60'2 3.2
2017-Aug-16 04:30N 55°28' E 016°03'611.3
2017-Aug-16 04:00N 55°27' E 016°12'1 2.9
2017-Aug-16 03:30N 55°28' E 016°15'510.0
2017-Aug-16 03:00N 55°27' E 016°24'4 5.2
2017-Aug-16 02:20N 55°28' E 016°30'7 9.8
2017-Aug-16 01:39N 55°33' E 016°23'210.5
2017-Aug-16 01:30N 55°34' E 016°21'4 8.9
2017-Aug-16 01:00N 55°37' E 016°16'1 2.5
2017-Aug-16 00:30N 55°37' E 016°18'611.3
2017-Aug-16 00:00N 55°37' E 016°28'1 2.4
2017-Aug-15 23:30N 55°38' E 016°30'5 9.9
2017-Aug-15 23:00N 55°43' E 016°30'5 9.6
2017-Aug-15 22:30N 55°47' E 016°31'2 4.6
2017-Aug-15 22:00N 55°47' E 016°26'510.3
2017-Aug-15 21:30N 55°48' E 016°17'2 3.4
2017-Aug-15 20:59N 55°47' E 016°14'510.4
2017-Aug-15 20:30N 55°48' E 016°05'3 6.0
2017-Aug-15 20:00N 55°47' E 015°60'4 8.6
2017-Aug-15 19:30N 55°43' E 016°00'611.3
2017-Aug-15 19:01N 55°38' E 016°01'2 4.2
2017-Aug-15 18:30N 55°37' E 015°57'510.9
2017-Aug-15 18:00N 55°37' E 015°48'2 4.4
2017-Aug-15 17:30N 55°37' E 015°44'611.1
2017-Aug-15 17:01N 55°38' E 015°34'2 5.0
2017-Aug-15 16:30N 55°37' E 015°30'510.6
2017-Aug-15 16:00N 55°37' E 015°20'3 6.2
2017-Aug-15 15:30N 55°38' E 015°15'4 8.6
2017-Aug-15 15:00N 55°37' E 015°07'4 8.0
2017-Aug-15 14:30N 55°38' E 015°00'2 3.7
2017-Aug-15 14:00N 55°37' E 014°57'510.7
2017-Aug-15 13:30N 55°37' E 014°47'2 3.4
2017-Aug-15 13:00N 55°37' E 014°45'611.8
2017-Aug-15 12:30N 55°31' E 014°45'3 6.5
2017-Aug-15 12:00N 55°27' E 014°44'4 8.3
2017-Aug-15 11:30N 55°24' E 014°40'611.6
2017-Aug-15 11:01N 55°19' E 014°35'611.7
2017-Aug-15 10:31N 55°14' E 014°29'611.3
2017-Aug-15 10:00N 55°09' E 014°26'5 9.7
2017-Aug-15 09:30N 55°04' E 014°23'1 2.3
2017-Aug-15 09:00N 55°05' E 014°22'2 4.2
2017-Aug-15 08:30N 55°04' E 014°18'611.1
2017-Aug-15 08:00N 55°01' E 014°10'3 6.8
2017-Aug-15 07:30N 54°58' E 014°07'1 2.6
2017-Aug-15 07:00N 54°58' E 014°04'611.2
2017-Aug-15 06:30N 54°56' E 013°55'611.1
2017-Aug-15 06:00N 54°54' E 013°46'611.0
2017-Aug-15 05:30N 54°52' E 013°37'510.8
2017-Aug-15 05:00N 54°50' E 013°29'610.7
2017-Aug-15 04:26N 54°48' E 013°19'1510.8
2017-Aug-15 03:02N 54°42' E 012°54'010.9
2017-Aug-15 03:00N 54°42' E 012°54'510.8
2017-Aug-15 02:30N 54°40' E 012°45'1611.1
2017-Aug-15 01:02N 54°32' E 012°20'010.7
2017-Aug-15 01:00N 54°32' E 012°20'611.3
2017-Aug-15 00:29N 54°27' E 012°14'511.0
2017-Aug-15 00:00N 54°24' E 012°07'1710.6
2017-Aug-14 22:24N 54°27' E 011°38'410.6
2017-Aug-14 22:00N 54°28' E 011°31'510.3
2017-Aug-14 21:30N 54°31' E 011°23'5 9.8
2017-Aug-14 21:00N 54°32' E 011°15'5 9.4
2017-Aug-14 20:30N 54°34' E 011°08'510.0
2017-Aug-14 20:00N 54°35' E 010°59'611.1
2017-Aug-14 19:30N 54°38' E 010°51'3 6.7
2017-Aug-14 19:00N 54°40' E 010°46'4 8.5
2017-Aug-14 18:30N 54°40' E 010°39'5 9.3
2017-Aug-14 18:00N 54°41' E 010°31'3 5.1
2017-Aug-14 17:30N 54°41' E 010°26'510.9
2017-Aug-14 17:00N 54°41' E 010°17'11 6.6
2017-Aug-14 15:17N 54°30' E 010°20'2 8.0
2017-Aug-14 15:00N 54°28' E 010°22'0 0.2
2017-Aug-14 14:30N 54°28' E 010°22'  
2017-Aug-11 05:39N 54°20' E 010°10'1 2.0
2017-Aug-11 05:24N 54°20' E 010°09'0 0.0
2017-Aug-11 04:54N 54°20' E 010°09'0 0.0
2017-Aug-11 04:21N 54°20' E 010°09'12 0.9
2017-Aug-10 14:39N 54°29' E 010°24'411.6
2017-Aug-10 14:19N 54°29' E 010°30'411.7
2017-Aug-10 14:00N 54°30' E 010°36'611.6
2017-Aug-10 13:30N 54°31' E 010°46'611.2
2017-Aug-10 13:00N 54°33' E 010°55'510.8
2017-Aug-10 12:30N 54°34' E 011°04'510.6
2017-Aug-10 12:00N 54°33' E 011°14'2 4.9
2017-Aug-10 11:30N 54°33' E 011°18'1 2.5
2017-Aug-10 11:00N 54°32' E 011°19'1 2.9
2017-Aug-10 10:30N 54°30' E 011°20'3 5.3
2017-Aug-10 10:00N 54°28' E 011°22'1 2.8
2017-Aug-10 09:30N 54°27' E 011°23'  
Track history (hours):
 
Tides and Currents Weather Stations Pressure Air Temp Water Temp Dewpoint Dewpoint Depression Visibility Wind Speed Wind Dir Waves Ship Positions

Oceanographic research ship Alkor (Germany)

Ship's website: http://www.briese.de/

Detailed information on ship capabilities available from University of Delaware's Ocean Information Center.

Last reported at 2017-Aug-20 09:30 UTC. Time now 2017-Aug-20 09:49 UTC.
Position N 54°31' E 018°33'.

Length 55 m; draft 4.2 m.

Type: Ship. MMSI: 211216512.

Date/timePositionNaut miles runAvg speedWind from/ knotsBaromVisibWave heightAir tempDewpointWater temp
2017-Aug-20 09:30N 54°31' E 018°33'0 0.0
2017-Aug-20 09:00N 54°31' E 018°33'0 0.0
2017-Aug-20 08:30N 54°31' E 018°33'0 0.0
2017-Aug-20 08:00N 54°31' E 018°33'0 0.0
2017-Aug-20 07:30N 54°31' E 018°33'0 0.0
2017-Aug-20 07:00N 54°31' E 018°33'0 0.0
2017-Aug-20 06:30N 54°31' E 018°33'0 0.0
2017-Aug-20 06:00N 54°31' E 018°33'0 0.0
2017-Aug-20 05:30N 54°31' E 018°33'0 0.0
2017-Aug-20 05:00N 54°31' E 018°33'0 0.0
2017-Aug-20 04:30N 54°31' E 018°33'0 0.0
2017-Aug-20 04:00N 54°31' E 018°33'0 0.0
2017-Aug-20 03:30N 54°31' E 018°33'0 0.0
2017-Aug-20 03:00N 54°31' E 018°33'0 0.0
2017-Aug-20 02:30N 54°31' E 018°33'0 0.0
2017-Aug-20 02:00N 54°31' E 018°33'0 0.0
2017-Aug-20 01:30N 54°31' E 018°33'0 0.0
2017-Aug-20 01:00N 54°31' E 018°33'0 0.0
2017-Aug-20 00:30N 54°31' E 018°33'0 0.0
2017-Aug-20 00:00N 54°31' E 018°33'0 0.0
2017-Aug-19 23:29N 54°31' E 018°33'0 0.0
2017-Aug-19 23:00N 54°31' E 018°33'0 0.0
2017-Aug-19 22:30N 54°31' E 018°33'0 0.0
2017-Aug-19 22:00N 54°31' E 018°33'0 0.0
2017-Aug-19 21:30N 54°31' E 018°33'0 0.0
2017-Aug-19 21:00N 54°31' E 018°33'0 0.0
2017-Aug-19 20:30N 54°31' E 018°33'0 0.0
2017-Aug-19 20:00N 54°31' E 018°33'0 0.0
2017-Aug-19 19:30N 54°31' E 018°33'0 0.0
2017-Aug-19 19:00N 54°31' E 018°33'0 0.0
2017-Aug-19 18:30N 54°31' E 018°33'0 0.0
2017-Aug-19 18:00N 54°31' E 018°33'0 0.0
2017-Aug-19 17:30N 54°31' E 018°33'0 0.0
2017-Aug-19 17:00N 54°31' E 018°33'0 0.0
2017-Aug-19 16:29N 54°31' E 018°33'0 0.0
2017-Aug-19 16:00N 54°31' E 018°33'0 0.0
2017-Aug-19 15:30N 54°31' E 018°33'0 0.0
2017-Aug-19 15:00N 54°31' E 018°33'0 0.0
2017-Aug-19 14:00N 54°31' E 018°33'0 0.0
2017-Aug-19 13:30N 54°31' E 018°33'0 0.0
2017-Aug-19 12:59N 54°31' E 018°33'1 2.3
2017-Aug-19 12:30N 54°31' E 018°35'611.9
2017-Aug-19 12:00N 54°32' E 018°45'611.3
2017-Aug-19 11:30N 54°36' E 018°53'611.5
2017-Aug-19 11:00N 54°40' E 018°59'612.3
2017-Aug-19 10:30N 54°42' E 019°09'2 4.3
2017-Aug-19 10:00N 54°42' E 019°13'0 0.0
2017-Aug-19 09:30N 54°42' E 019°13'0 0.1
2017-Aug-19 09:00N 54°42' E 019°13'1 2.2
2017-Aug-19 08:30N 54°42' E 019°15'1 2.9
2017-Aug-19 08:00N 54°43' E 019°17'2 3.9
2017-Aug-19 07:30N 54°42' E 019°14'2 3.0
2017-Aug-19 07:00N 54°43' E 019°16'0 0.5
2017-Aug-19 06:30N 54°43' E 019°16'1 1.6
2017-Aug-19 06:00N 54°43' E 019°17'0 0.2
2017-Aug-19 05:30N 54°43' E 019°17'1 1.8
2017-Aug-19 05:00N 54°43' E 019°16'510.7
2017-Aug-19 04:30N 54°48' E 019°10'2 3.9
2017-Aug-19 04:00N 54°49' E 019°08'5 9.3
2017-Aug-19 03:30N 54°53' E 019°11'1 2.5
2017-Aug-19 03:00N 54°54' E 019°11'611.2
2017-Aug-19 02:30N 54°54' E 019°01'4 8.0
2017-Aug-19 02:00N 54°54' E 018°54'2 4.6
2017-Aug-19 01:30N 54°56' E 018°57'510.9
2017-Aug-19 01:00N 54°59' E 019°04'1 1.4
2017-Aug-19 00:30N 55°00' E 019°04'5 9.6
2017-Aug-19 00:00N 54°60' E 018°56'611.2
2017-Aug-18 23:30N 54°60' E 018°46'3 5.7
2017-Aug-18 23:00N 55°00' E 018°41'4 7.9
2017-Aug-18 22:30N 55°04' E 018°44'611.3
2017-Aug-18 22:00N 55°09' E 018°48'9 6.6
2017-Aug-18 20:35N 55°09' E 018°32'110.8
2017-Aug-18 20:30N 55°09' E 018°30'3 6.3
2017-Aug-18 20:00N 55°09' E 018°25'8 9.9
2017-Aug-18 19:09N 55°09' E 018°10'211.8
2017-Aug-18 18:58N 55°08' E 018°07'611.9
2017-Aug-18 18:30N 55°08' E 017°57'2611.9
2017-Aug-18 16:20N 55°06' E 017°12'512.1
2017-Aug-18 15:57N 55°06' E 017°04'612.1
2017-Aug-18 15:29N 55°06' E 016°54'4111.4
2017-Aug-18 11:51N 55°04' E 015°42'4 1.7
2017-Aug-18 09:30N 55°07' E 015°45'5 1.6
2017-Aug-18 06:27N 55°03' E 015°42'1 2.8
2017-Aug-18 06:00N 55°04' E 015°43'4 1.5
2017-Aug-18 03:34N 55°07' E 015°45'2 6.2
2017-Aug-18 03:16N 55°06' E 015°44'0 0.3
2017-Aug-18 02:12N 55°05' E 015°45'1 0.5
2017-Aug-17 23:13N 55°05' E 015°47'3 2.5
2017-Aug-17 22:13N 55°08' E 015°45'0 0.2
2017-Aug-17 21:53N 55°08' E 015°45'0 0.0
2017-Aug-17 21:30N 55°08' E 015°45'0 0.0
2017-Aug-17 20:59N 55°08' E 015°45'1 2.4
2017-Aug-17 20:29N 55°06' E 015°46'2 3.0
2017-Aug-17 19:58N 55°08' E 015°45'2 3.6
2017-Aug-17 19:30N 55°06' E 015°46'2 3.1
2017-Aug-17 19:00N 55°08' E 015°45'2 4.5
2017-Aug-17 18:30N 55°10' E 015°45'4 6.2
2017-Aug-17 17:54N 55°14' E 015°45'3 6.6
2017-Aug-17 17:29N 55°16' E 015°45'1 2.5
2017-Aug-17 17:00N 55°18' E 015°45'1 1.7
2017-Aug-17 16:30N 55°17' E 015°45'611.6
2017-Aug-17 16:00N 55°16' E 015°55'2 4.1
2017-Aug-17 15:30N 55°15' E 015°59'0 0.8
2017-Aug-17 15:00N 55°15' E 015°59'2 4.1
2017-Aug-17 14:30N 55°17' E 016°00'1 2.4
2017-Aug-17 14:00N 55°18' E 016°02'611.2
2017-Aug-17 13:30N 55°18' E 016°12'3 5.2
2017-Aug-17 13:01N 55°18' E 016°16'510.7
2017-Aug-17 12:30N 55°17' E 016°25'3 5.3
2017-Aug-17 12:00N 55°17' E 016°30'611.2
2017-Aug-17 11:30N 55°12' E 016°30'4 8.4
2017-Aug-17 11:00N 55°08' E 016°30'4 7.7
2017-Aug-17 10:30N 55°07' E 016°23'4 8.9
2017-Aug-17 10:00N 55°08' E 016°15'3 6.8
2017-Aug-17 09:30N 55°07' E 016°09'510.7
2017-Aug-17 09:00N 55°08' E 016°00'2 4.4
2017-Aug-17 08:30N 55°07' E 015°56'611.3
2017-Aug-17 08:00N 55°08' E 015°46'1 2.8
2017-Aug-17 07:30N 55°06' E 015°45'611.7
2017-Aug-17 07:00N 55°01' E 015°45'3 6.2
2017-Aug-17 06:30N 54°57' E 015°46'5 9.2
2017-Aug-17 06:00N 54°58' E 015°54'4 7.1
2017-Aug-17 05:31N 54°57' E 015°60'9 9.8
2017-Aug-17 04:38N 54°57' E 016°15'0 1.5
2017-Aug-17 04:28N 54°57' E 016°15'8 9.6
2017-Aug-17 03:36N 54°51' E 016°05'111.1
2017-Aug-17 03:29N 54°50' E 016°04'4 7.7
2017-Aug-17 03:00N 54°47' E 015°60'7 8.9
2017-Aug-17 02:10N 54°48' E 015°47'1 7.2
2017-Aug-17 02:00N 54°47' E 015°45'2 4.2
2017-Aug-17 01:27N 54°45' E 015°45'511.2
2017-Aug-17 01:00N 54°40' E 015°45'3 5.5
2017-Aug-17 00:30N 54°37' E 015°45'4 7.4
2017-Aug-17 00:00N 54°37' E 015°39'5 9.7
2017-Aug-16 23:30N 54°37' E 015°30'4 6.7
2017-Aug-16 22:52N 54°38' E 015°23'411.4
2017-Aug-16 22:30N 54°38' E 015°16'7 6.9
2017-Aug-16 21:26N 54°43' E 015°06'511.7
2017-Aug-16 20:59N 54°47' E 015°01'1 2.8
2017-Aug-16 20:30N 54°47' E 015°03'611.0
2017-Aug-16 20:00N 54°47' E 015°13'3 4.9
2017-Aug-16 19:28N 54°47' E 015°17'610.9
2017-Aug-16 18:53N 54°47' E 015°28'8 7.2
2017-Aug-16 17:43N 54°56' E 015°30'4 5.3
2017-Aug-16 16:56N 54°57' E 015°23'511.2
2017-Aug-16 16:30N 54°58' E 015°15'5 7.2
2017-Aug-16 15:52N 55°02' E 015°15'411.1
2017-Aug-16 15:31N 55°06' E 015°15'2 3.2
2017-Aug-16 15:00N 55°08' E 015°16'611.6
2017-Aug-16 14:30N 55°08' E 015°27'3 5.1
2017-Aug-16 14:00N 55°08' E 015°31'611.1
2017-Aug-16 13:30N 55°13' E 015°30'4 8.0
2017-Aug-16 13:00N 55°17' E 015°30'2 3.9
2017-Aug-16 12:30N 55°18' E 015°26'510.7
2017-Aug-16 12:00N 55°18' E 015°17'2 3.5
2017-Aug-16 11:30N 55°18' E 015°14'611.4
2017-Aug-16 11:00N 55°17' E 015°04'2 4.4
2017-Aug-16 10:30N 55°18' E 015°00'611.3
2017-Aug-16 10:01N 55°23' E 015°00'4 8.3
2017-Aug-16 09:30N 55°27' E 015°00'3 5.9
2017-Aug-16 09:00N 55°27' E 015°05'510.1
2017-Aug-16 08:30N 55°27' E 015°14'2 4.1
2017-Aug-16 08:01N 55°28' E 015°18'611.1
2017-Aug-16 07:31N 55°28' E 015°27'2 3.8
2017-Aug-16 07:00N 55°28' E 015°31'5 9.7
2017-Aug-16 06:30N 55°27' E 015°39'4 7.2
2017-Aug-16 06:00N 55°27' E 015°45'3 5.9
2017-Aug-16 05:30N 55°28' E 015°50'510.8
2017-Aug-16 05:00N 55°27' E 015°60'2 3.2
2017-Aug-16 04:30N 55°28' E 016°03'611.3
2017-Aug-16 04:00N 55°27' E 016°12'1 2.9
2017-Aug-16 03:30N 55°28' E 016°15'510.0
2017-Aug-16 03:00N 55°27' E 016°24'4 5.2
2017-Aug-16 02:20N 55°28' E 016°30'7 9.8
2017-Aug-16 01:39N 55°33' E 016°23'210.5
2017-Aug-16 01:30N 55°34' E 016°21'4 8.9
2017-Aug-16 01:00N 55°37' E 016°16'1 2.5
2017-Aug-16 00:30N 55°37' E 016°18'611.3
2017-Aug-16 00:00N 55°37' E 016°28'1 2.4
2017-Aug-15 23:30N 55°38' E 016°30'5 9.9
2017-Aug-15 23:00N 55°43' E 016°30'5 9.6
2017-Aug-15 22:30N 55°47' E 016°31'2 4.6
2017-Aug-15 22:00N 55°47' E 016°26'510.3
2017-Aug-15 21:30N 55°48' E 016°17'2 3.4
2017-Aug-15 20:59N 55°47' E 016°14'510.4
2017-Aug-15 20:30N 55°48' E 016°05'3 6.0
2017-Aug-15 20:00N 55°47' E 015°60'4 8.6
2017-Aug-15 19:30N 55°43' E 016°00'611.3
2017-Aug-15 19:01N 55°38' E 016°01'2 4.2
2017-Aug-15 18:30N 55°37' E 015°57'510.9
2017-Aug-15 18:00N 55°37' E 015°48'2 4.4
2017-Aug-15 17:30N 55°37' E 015°44'611.1
2017-Aug-15 17:01N 55°38' E 015°34'2 5.0
2017-Aug-15 16:30N 55°37' E 015°30'510.6
2017-Aug-15 16:00N 55°37' E 015°20'3 6.2
2017-Aug-15 15:30N 55°38' E 015°15'4 8.6
2017-Aug-15 15:00N 55°37' E 015°07'4 8.0
2017-Aug-15 14:30N 55°38' E 015°00'2 3.7
2017-Aug-15 14:00N 55°37' E 014°57'510.7
2017-Aug-15 13:30N 55°37' E 014°47'2 3.4
2017-Aug-15 13:00N 55°37' E 014°45'611.8
2017-Aug-15 12:30N 55°31' E 014°45'3 6.5
2017-Aug-15 12:00N 55°27' E 014°44'4 8.3
2017-Aug-15 11:30N 55°24' E 014°40'611.6
2017-Aug-15 11:01N 55°19' E 014°35'611.7
2017-Aug-15 10:31N 55°14' E 014°29'611.3
2017-Aug-15 10:00N 55°09' E 014°26'5 9.7
2017-Aug-15 09:30N 55°04' E 014°23'1 2.3
2017-Aug-15 09:00N 55°05' E 014°22'2 4.2
2017-Aug-15 08:30N 55°04' E 014°18'611.1
2017-Aug-15 08:00N 55°01' E 014°10'3 6.8
2017-Aug-15 07:30N 54°58' E 014°07'1 2.6
2017-Aug-15 07:00N 54°58' E 014°04'611.2
2017-Aug-15 06:30N 54°56' E 013°55'611.1
2017-Aug-15 06:00N 54°54' E 013°46'611.0
2017-Aug-15 05:30N 54°52' E 013°37'510.8
2017-Aug-15 05:00N 54°50' E 013°29'610.7
2017-Aug-15 04:26N 54°48' E 013°19'1510.8
2017-Aug-15 03:02N 54°42' E 012°54'010.9
2017-Aug-15 03:00N 54°42' E 012°54'510.8
2017-Aug-15 02:30N 54°40' E 012°45'1611.1
2017-Aug-15 01:02N 54°32' E 012°20'010.7
2017-Aug-15 01:00N 54°32' E 012°20'611.3
2017-Aug-15 00:29N 54°27' E 012°14'511.0
2017-Aug-15 00:00N 54°24' E 012°07'1710.6
2017-Aug-14 22:24N 54°27' E 011°38'410.6
2017-Aug-14 22:00N 54°28' E 011°31'510.3
2017-Aug-14 21:30N 54°31' E 011°23'5 9.8
2017-Aug-14 21:00N 54°32' E 011°15'5 9.4
2017-Aug-14 20:30N 54°34' E 011°08'510.0
2017-Aug-14 20:00N 54°35' E 010°59'611.1
2017-Aug-14 19:30N 54°38' E 010°51'3 6.7
2017-Aug-14 19:00N 54°40' E 010°46'4 8.5
2017-Aug-14 18:30N 54°40' E 010°39'5 9.3
2017-Aug-14 18:00N 54°41' E 010°31'3 5.1
2017-Aug-14 17:30N 54°41' E 010°26'510.9
2017-Aug-14 17:00N 54°41' E 010°17'11 6.6
2017-Aug-14 15:17N 54°30' E 010°20'2 8.0
2017-Aug-14 15:00N 54°28' E 010°22'0 0.2
2017-Aug-14 14:30N 54°28' E 010°22'  
2017-Aug-11 05:39N 54°20' E 010°10'1 2.0
2017-Aug-11 05:24N 54°20' E 010°09'0 0.0
2017-Aug-11 04:54N 54°20' E 010°09'0 0.0
2017-Aug-11 04:21N 54°20' E 010°09'12 0.9
2017-Aug-10 14:39N 54°29' E 010°24'411.6
2017-Aug-10 14:19N 54°29' E 010°30'411.7
2017-Aug-10 14:00N 54°30' E 010°36'611.6
2017-Aug-10 13:30N 54°31' E 010°46'611.2
2017-Aug-10 13:00N 54°33' E 010°55'510.8
2017-Aug-10 12:30N 54°34' E 011°04'510.6
2017-Aug-10 12:00N 54°33' E 011°14'2 4.9
2017-Aug-10 11:30N 54°33' E 011°18'1 2.5
2017-Aug-10 11:00N 54°32' E 011°19'1 2.9
2017-Aug-10 10:30N 54°30' E 011°20'3 5.3
2017-Aug-10 10:00N 54°28' E 011°22'1 2.8
2017-Aug-10 09:30N 54°27' E 011°23'  

Dump ship's entire track history